Station: Smithville  

  Atmospheric Gas Attenuation - ITU Rec 676-11   ----------------- dB/100km -----------------
Date Time Temp RH % AH g/m3 Dew Point Wind Direction Speed kph Gust kph Barometer mB Rainfall Since 9am 24GHz 47GHz 76GHz 122GHz 134GHz 241GHz
08/05 12:30 16.3 51 7.08 6.2 1013.1 0 16.2 22.9 32.8 85.9 76.4 261.8
08/05 12:20 16.8 50 7.15 6.3 1013.1 0 16.4 22.8 32.9 86.0 76.8 263.1
08/05 12:10 16.1 50 6.85 5.9 1013.1 0 15.8 22.6 32.1 83.9 73.8 252.7
08/05 12:00 16.3 51 7.08 6.2 1013.1 0 16.2 22.9 32.8 85.9 76.4 261.8
08/05 11:50 15.5 52 6.87 5.7 1013.1 0 15.8 22.7 32.4 84.7 74.6 255.5
08/05 11:40 15.6 51 6.78 5.5 1013.1 0 15.6 22.6 32.0 83.7 73.5 251.3
08/05 11:30 15.5 52 6.87 5.7 1013.1 0 15.8 22.7 32.4 84.7 74.6 255.5
08/05 11:20 15.3 52 6.79 5.7 1013.1 0 15.7 22.7 32.2 84.1 73.9 252.7
08/05 11:10 14.9 53 6.75 5.4 1013.1 0 15.6 22.7 32.2 84.1 73.8 252.3
08/05 11:00 15.3 53 6.92 5.8 1013.1 0 15.9 22.9 32.7 85.4 75.4 258.2
08/05 10:50 14.7 55 6.92 5.7 1013.1 0 16.0 23.0 32.9 86.0 76.0 260.2
08/05 10:40 14.4 54 6.68 5.4 1013.1 0 15.5 22.7 32.1 84.0 73.4 250.8
08/05 10:30 14.2 55 6.72 5.3 1013.1 0 15.6 22.9 32.4 84.6 74.0 253.2
08/05 10:20 13.6 56 6.59 5 1013.1 0 15.3 22.8 32.1 83.9 73.0 249.5
08/05 10:10 13.1 56 6.39 4.7 1013.1 0 14.9 22.6 31.6 82.4 71.0 242.4
08/05 10:00 12.8 57 6.39 4.5 1013.1 0 14.9 22.7 31.7 82.8 71.3 243.3
08/05 09:50 12.5 57 6.27 4.2 1013.1 0 14.7 22.6 31.3 81.9 70.1 239.0
08/05 09:40 12.1 58 6.22 4.1 1013.1 0 14.6 22.6 31.3 81.8 69.8 238.1
08/05 09:30 11.7 59 6.17 4 1013.1 0 14.5 22.6 31.3 81.7 69.5 237.1
08/05 09:20 11.5 58 5.99 3.7 1013.1 0 14.1 22.4 30.7 80.1 67.5 229.9
08/05 09:10 10.9 59 5.87 3.2 1013.1 0 13.9 22.4 30.5 79.5 66.5 226.4
08/05 09:00 10.6 60 5.86 3.2 1013.1 0 13.9 22.4 30.5 79.7 66.7 226.8
08/05 08:50 10.2 61 5.81 3 1013.1 0 13.8 22.5 30.5 79.6 66.4 225.8
08/05 08:40 9.5 61 5.55 2.3 1013.1 0 13.3 22.2 29.8 77.7 63.7 216.3
08/05 08:30 9 63 5.56 2.3 1013.1 0 13.3 22.4 30.0 78.3 64.2 218.1
08/05 08:20 7.9 67 5.51 2.1 1013.1 0 13.2 22.6 30.2 78.8 64.5 218.9
08/05 08:10 7 69 5.35 1.7 1013.1 0 12.9 22.6 30.0 78.1 63.2 214.3
08/05 08:00 6.4 71 5.29 1.5 1013.1 0 12.8 22.6 29.9 78.0 62.9 213.2
08/05 07:50 5.8 73 5.23 1.3 1013.1 0 12.7 22.7 29.9 78.0 62.6 212.1
08/05 07:40 5.5 75 5.27 1.4 1013.1 0 12.8 22.8 30.2 78.7 63.4 214.7
08/05 07:30 5.3 75 5.2 1.2 1013.1 0 12.6 22.7 30.0 78.2 62.7 212.1
08/05 07:20 5.1 75 5.13 1 1013.1 0 12.5 22.7 29.8 77.7 61.9 209.4
08/05 07:10 5 75 5.1 0.9 1013.1 0 12.4 22.7 29.7 77.4 61.6 208.3
08/05 07:00 5.1 75 5.13 1 1013.1 0 12.5 22.7 29.8 77.7 61.9 209.4
08/05 06:50 5.3 74 5.13 1 1013.1 0 12.5 22.6 29.7 77.5 61.8 208.9
08/05 06:40 5.3 74 5.13 1 1013.1 0 12.5 22.6 29.7 77.5 61.8 208.9
08/05 06:30 5.5 73 5.13 1.1 1013.1 0 12.5 22.6 29.7 77.3 61.6 208.4
08/05 06:20 5.5 73 5.13 1 1013.1 0 12.5 22.6 29.7 77.3 61.6 208.4
08/05 06:10 5.5 72 5.06 0.8 1013.1 0 12.3 22.5 29.4 76.5 60.7 205.2
08/05 06:00 5.5 71 4.99 0.7 1013.1 0 12.2 22.4 29.1 75.8 59.8 202.1
08/05 05:50 5.6 69 4.88 0.3 1013.1 0 12.0 22.2 28.7 74.6 58.3 196.9
08/05 05:40 5.4 68 4.75 0.1 1013.1 0 11.7 22.0 28.2 73.4 56.8 191.6
08/05 05:30 5.3 70 4.86 0.3 1013.1 0 11.9 22.2 28.7 74.7 58.3 196.7
08/05 05:20 5.2 69 4.75 0.1 1013.1 0 11.7 22.1 28.3 73.6 57.0 192.1
08/05 05:10 5.1 70 4.79 0.2 1013.1 0 11.8 22.2 28.5 74.1 57.5 194.1
08/05 05:00 5.2 70 4.82 0.2 1013.1 0 11.8 22.2 28.6 74.3 57.9 195.2
08/05 04:50 5.2 69 4.75 0.1 1013.1 0 11.7 22.1 28.3 73.6 57.0 192.1
08/05 04:40 5.2 70 4.82 0.3 1013.1 0 11.8 22.2 28.6 74.3 57.9 195.2
08/05 04:30 5.2 71 4.89 0.4 1013.1 0 12.0 22.3 28.8 75.1 58.8 198.3
08/05 04:20 5.3 70 4.86 0.4 1013.1 0 11.9 22.2 28.7 74.7 58.3 196.7
08/05 04:10 5.4 71 4.96 0.5 1013.1 0 12.1 22.3 29.0 75.6 59.5 201.0
08/05 04:00 5.4 71 4.96 0.6 1013.1 0 12.1 22.3 29.0 75.6 59.5 201.0
08/05 03:50 5.4 71 4.96 0.5 1013.1 0 12.1 22.3 29.0 75.6 59.5 201.0
08/05 03:40 5.4 71 4.96 0.5 1013.1 0 12.1 22.3 29.0 75.6 59.5 201.0
08/05 03:30 5.2 72 4.96 0.6 1013.1 0 12.1 22.4 29.1 75.8 59.6 201.5
08/05 03:20 5.4 71 4.96 0.5 1013.1 0 12.1 22.3 29.0 75.6 59.5 201.0
08/05 03:10 5.6 71 5.02 0.7 1013.1 0 12.3 22.4 29.2 76.0 60.1 203.1
08/05 03:00 5.9 70 5.05 0.9 1013.1 0 12.3 22.4 29.2 76.1 60.3 203.7
08/05 02:50 6.1 69 5.04 0.8 1013.1 0 12.3 22.3 29.1 75.8 60.0 202.8
08/05 02:40 6 68 4.94 0.5 1013.1 0 12.1 22.2 28.7 74.8 58.8 198.6
08/05 02:30 5.7 70 4.98 0.7 1013.1 0 12.2 22.3 29.0 75.5 59.5 201.1
08/05 02:20 5.5 71 4.99 0.6 1013.1 0 12.2 22.4 29.1 75.8 59.8 202.1
08/05 02:10 5.3 72 4.99 0.6 1013.1 0 12.2 22.4 29.2 76.0 60.0 202.6
08/05 02:00 5.2 73 5.03 0.8 1013.1 0 12.3 22.5 29.4 76.5 60.5 204.6
08/05 01:50 5.3 73 5.06 0.8 1013.1 0 12.3 22.5 29.5 76.7 60.9 205.7
08/05 01:40 5.5 71 4.99 0.6 1013.1 0 12.2 22.4 29.1 75.8 59.8 202.1
08/05 01:30 5.8 69 4.95 0.6 1013.1 0 12.1 22.2 28.8 75.1 59.1 199.5
08/05 01:20 6 68 4.94 0.5 1013.1 0 12.1 22.2 28.7 74.8 58.8 198.6
08/05 01:10 6.1 68 4.97 0.6 1013.1 0 12.1 22.2 28.8 75.0 59.1 199.6
08/05 01:00 6.1 68 4.97 0.6 1013.1 0 12.1 22.2 28.8 75.0 59.1 199.6
08/05 00:50 6.1 68 4.97 0.6 1013.1 0 12.1 22.2 28.8 75.0 59.1 199.6
08/05 00:40 6.1 68 4.97 0.6 1013.1 0 12.1 22.2 28.8 75.0 59.1 199.6
08/05 00:20 6 69 5.01 0.7 1013.1 0 12.2 22.3 29.0 75.5 59.7 201.7
08/05 00:10 6 69 5.01 0.7 1013.1 0 12.2 22.3 29.0 75.5 59.7 201.7
08/05 00:00 6.1 68 4.97 0.6 1013.1 0 12.1 22.2 28.8 75.0 59.1 199.6
07/05 23:50 6.2 68 5 0.7 1013.1 0 12.2 22.2 28.9 75.3 59.4 200.7
07/05 23:40 6.3 67 4.96 0.6 1013.1 0 12.1 22.1 28.7 74.7 58.8 198.7
07/05 23:30 6.3 67 4.96 0.6 1013.1 0 12.1 22.1 28.7 74.7 58.8 198.7
07/05 23:20 6.7 65 4.94 0.6 1013.1 0 12.0 22.0 28.5 74.2 58.3 196.8
07/05 23:10 6.9 64 4.93 0.5 1013.1 0 12.0 21.9 28.4 73.9 58.0 195.9
07/05 23:00 7 64 4.96 0.7 1013.1 0 12.1 22.0 28.5 74.1 58.3 197.0
07/05 22:50 7.2 63 4.95 0.6 1013.1 0 12.0 21.9 28.4 73.8 58.0 196.0
07/05 22:40 7.2 63 4.95 0.6 1013.1 0 12.0 21.9 28.4 73.8 58.0 196.0
07/05 22:30 7.4 63 5.01 0.8 1013.1 0 12.2 21.9 28.5 74.2 58.6 198.2
07/05 22:20 7.5 63 5.04 0.9 1013.1 0 12.2 22.0 28.6 74.4 58.9 199.2
07/05 22:10 7.8 61 4.98 0.7 1013.1 0 12.1 21.8 28.3 73.6 58.0 195.9
07/05 22:00 8.2 59 4.94 0.7 1013.1 0 12.0 21.6 28.0 72.8 57.2 193.2
07/05 21:50 8.3 59 4.97 0.7 1013.1 0 12.1 21.7 28.0 73.0 57.5 194.2
07/05 21:40 8.6 58 4.99 0.8 1013.1 0 12.1 21.6 28.0 72.9 57.5 194.4
07/05 21:30 8.8 57 4.96 0.8 1013.1 0 12.0 21.5 27.8 72.4 57.0 192.6
07/05 21:20 9 56 4.94 0.7 1013.1 0 12.0 21.5 27.7 72.1 56.6 191.3
07/05 21:10 9.3 55 4.94 0.7 1013.1 0 12.0 21.4 27.6 71.8 56.4 190.6
07/05 21:00 9.4 55 4.98 0.8 1013.1 0 12.0 21.4 27.7 72.1 56.8 192.0
07/05 20:50 9.6 54 4.95 0.7 1013.1 0 12.0 21.3 27.5 71.6 56.3 190.3
07/05 20:40 10 53 4.98 0.8 1013.1 0 12.0 21.3 27.5 71.6 56.4 190.6
07/05 20:30 10.3 52 4.98 0.9 1013.1 0 12.0 21.2 27.4 71.3 56.2 189.9
07/05 20:20 10.4 52 5.01 0.9 1013.1 0 12.1 21.2 27.5 71.5 56.4 190.9
07/05 20:10 10.6 52 5.08 1.1 1013.1 0 12.2 21.3 27.7 72.0 57.1 193.4
07/05 20:00 10.7 52 5.11 1.3 1013.1 0 12.3 21.3 27.7 72.2 57.4 194.4
07/05 19:50 10.8 51 5.04 1 1013.1 0 12.1 21.2 27.5 71.4 56.5 191.2

Last Refresh: 08-May-2026 12:08:17

Bureau of Meteorology